Time;durP1;ratioP1;P1;durP2;ratioP2;P2;SDS_P1;SDS_P2;PMS_P1;PMS_P2;Temp;Humidity;BMP_temperature;BMP_pressure;BME280_temperature;BME280_humidity;BME280_pressure;Samples;Min_cycle;Max_cycle;Signal;HPM_P1;HPM_P2
2023/04/23 00:02:10;;;;;;;37.55;23.13;;;9.80;99.90;;;;;;5072464;28;20094;-62
2023/04/23 00:04:37;;;;;;;36.58;23.15;;;9.80;99.90;;;;;;5072613;28;20037;-62
2023/04/23 00:07:04;;;;;;;36.17;22.70;;;9.70;99.90;;;;;;5072490;28;20040;-62
2023/04/23 00:09:31;;;;;;;36.50;22.35;;;9.70;99.90;;;;;;5072505;28;20048;-62
2023/04/23 00:11:58;;;;;;;36.97;21.80;;;9.70;99.90;;;;;;5071791;28;20085;-62
2023/04/23 00:14:24;;;;;;;41.25;24.05;;;9.60;99.90;;;;;;5054700;28;20048;-62
2023/04/23 00:16:50;;;;;;;34.85;22.45;;;9.60;99.90;;;;;;5072194;28;20494;-62
2023/04/23 00:19:16;;;;;;;38.85;22.83;;;9.60;99.90;;;;;;5054095;28;20076;-62
2023/04/23 00:21:41;;;;;;;38.40;22.02;;;9.50;99.90;;;;;;5053789;28;20439;-62
2023/04/23 00:24:07;;;;;;;38.22;23.10;;;9.60;99.90;;;;;;5072083;28;20118;-61
2023/04/23 00:26:32;;;;;;;38.28;23.10;;;9.60;99.90;;;;;;5072021;28;20067;-61
2023/04/23 00:28:58;;;;;;;41.00;22.48;;;9.60;99.90;;;;;;5072365;28;20075;-62
2023/04/23 00:31:25;;;;;;;40.38;24.42;;;9.50;99.90;;;;;;5071991;28;20037;-61
2023/04/23 00:33:51;;;;;;;43.67;24.25;;;9.50;99.90;;;;;;5072146;28;20040;-62
2023/04/23 00:36:17;;;;;;;40.92;24.10;;;9.50;99.90;;;;;;5072085;28;20037;-62
2023/04/23 00:38:43;;;;;;;39.65;23.15;;;9.50;99.90;;;;;;5072000;28;20417;-61
2023/04/23 00:41:09;;;;;;;39.35;23.98;;;9.50;99.90;;;;;;5053710;28;20044;-62
2023/04/23 00:43:34;;;;;;;40.92;23.98;;;9.40;99.90;;;;;;5071980;28;20032;-62
2023/04/23 00:46:00;;;;;;;41.55;24.42;;;9.40;99.90;;;;;;5071477;28;20032;-62
2023/04/23 00:48:27;;;;;;;44.13;25.45;;;9.40;99.90;;;;;;5071757;28;20032;-62
2023/04/23 00:51:02;;;;;;;45.67;25.30;;;9.40;99.90;;;;;;5071705;28;20040;-62
2023/04/23 00:53:28;;;;;;;41.83;25.33;;;9.40;99.90;;;;;;5070643;28;20045;-62
2023/04/23 00:55:53;;;;;;;42.35;25.58;;;9.30;99.90;;;;;;5071709;28;20043;-62
2023/04/23 00:58:20;;;;;;;48.40;27.00;;;9.30;99.90;;;;;;5071775;28;20041;-62
2023/04/23 01:00:47;;;;;;;46.80;25.23;;;9.40;99.90;;;;;;5071313;28;20071;-62
2023/04/23 01:03:15;;;;;;;47.05;26.73;;;9.40;99.90;;;;;;5053391;28;20036;-62
2023/04/23 01:05:41;;;;;;;53.92;28.27;;;9.30;99.90;;;;;;5071733;28;20036;-62
2023/04/23 01:08:11;;;;;;;49.72;28.27;;;9.30;99.90;;;;;;5071661;28;20495;-62
2023/04/23 01:10:37;;;;;;;49.70;28.77;;;9.40;99.90;;;;;;5071298;28;20098;-62
2023/04/23 01:13:03;;;;;;;53.83;30.50;;;9.30;99.90;;;;;;5071216;28;20486;-62
2023/04/23 01:15:29;;;;;;;57.65;30.92;;;9.30;99.90;;;;;;5071620;28;20090;-62
2023/04/23 01:17:57;;;;;;;53.80;30.05;;;9.20;99.90;;;;;;5053192;28;20041;-62
2023/04/23 01:20:22;;;;;;;54.67;30.50;;;9.20;99.90;;;;;;5071583;28;20044;-62
2023/04/23 01:22:48;;;;;;;54.67;30.92;;;9.20;99.90;;;;;;5070924;28;20064;-62
2023/04/23 01:25:14;;;;;;;55.53;31.63;;;9.20;99.90;;;;;;5071542;28;20067;-62
2023/04/23 01:27:40;;;;;;;54.00;30.30;;;9.20;99.90;;;;;;5071618;28;20033;-62
2023/04/23 01:30:07;;;;;;;55.20;31.52;;;9.20;99.90;;;;;;5071755;28;20045;-62
2023/04/23 01:32:34;;;;;;;54.67;30.25;;;9.20;99.90;;;;;;5071209;28;20127;-62
2023/04/23 01:35:00;;;;;;;62.53;32.97;;;9.20;99.90;;;;;;5053341;28;20547;-62
2023/04/23 01:37:27;;;;;;;70.80;36.30;;;9.20;99.90;;;;;;5053419;28;20162;-62
2023/04/23 01:39:53;;;;;;;78.45;39.65;;;9.20;99.90;;;;;;5071633;28;20044;-62
2023/04/23 01:42:19;;;;;;;70.57;37.63;;;9.20;99.90;;;;;;5071373;28;20044;-62
2023/04/23 01:44:44;;;;;;;74.10;38.38;;;9.10;99.90;;;;;;5070894;28;20102;-62
2023/04/23 01:47:10;;;;;;;74.85;38.78;;;9.20;99.90;;;;;;5072264;28;20043;-62
2023/04/23 01:49:36;;;;;;;80.47;41.20;;;9.20;99.90;;;;;;5075112;28;20052;-62
2023/04/23 01:52:01;;;;;;;75.55;38.92;;;9.20;99.90;;;;;;5074970;28;20402;-62
2023/04/23 01:54:27;;;;;;;77.05;39.95;;;9.20;99.90;;;;;;5057334;28;20529;-62
2023/04/23 01:56:54;;;;;;;75.38;38.50;;;9.20;99.90;;;;;;5084979;22;20131;-66
2023/04/23 01:59:21;;;;;;;71.00;36.97;;;9.20;99.90;;;;;;5064002;28;20044;-66
2023/04/23 02:01:47;;;;;;;62.35;35.03;;;9.20;99.90;;;;;;5072756;28;20044;-65
2023/04/23 02:04:14;;;;;;;64.43;35.90;;;9.20;99.90;;;;;;5073641;28;20036;-65
2023/04/23 02:06:42;;;;;;;68.90;36.05;;;9.10;99.90;;;;;;5062139;28;20036;-65
2023/04/23 02:09:08;;;;;;;73.82;38.72;;;9.10;99.90;;;;;;5055187;28;20033;-65
2023/04/23 02:11:34;;;;;;;76.90;39.38;;;9.10;99.90;;;;;;5053589;28;20098;-65
2023/04/23 02:14:01;;;;;;;67.32;36.22;;;9.00;99.90;;;;;;5054378;28;20086;-66
2023/04/23 02:16:27;;;;;;;57.38;28.90;;;9.00;99.90;;;;;;5054633;28;20041;-65
2023/04/23 02:18:54;;;;;;;85.53;33.17;;;9.00;99.90;;;;;;5054477;28;20041;-65
2023/04/23 02:21:20;;;;;;;59.03;27.77;;;8.90;99.90;;;;;;5054539;28;20055;-65
2023/04/23 02:23:45;;;;;;;47.75;26.48;;;8.90;99.90;;;;;;5054378;28;20037;-65
2023/04/23 02:26:11;;;;;;;53.38;29.30;;;8.80;99.90;;;;;;5053186;28;20044;-65
2023/04/23 02:28:37;;;;;;;50.63;25.98;;;8.70;99.90;;;;;;5054001;28;20037;-65
2023/04/23 02:31:03;;;;;;;49.17;27.55;;;8.70;99.90;;;;;;5054094;28;20091;-66
2023/04/23 02:33:29;;;;;;;51.67;28.70;;;8.60;99.90;;;;;;5054024;28;20406;-65
2023/04/23 02:35:54;;;;;;;48.20;27.58;;;8.60;99.90;;;;;;5053907;28;20044;-65
2023/04/23 02:38:20;;;;;;;48.75;27.65;;;8.50;99.90;;;;;;5053923;28;20376;-65
2023/04/23 02:40:45;;;;;;;48.58;25.27;;;8.40;99.90;;;;;;5054082;28;20048;-65
2023/04/23 02:43:11;;;;;;;44.85;24.02;;;8.40;99.90;;;;;;5053832;28;20041;-65
2023/04/23 02:45:36;;;;;;;52.95;24.77;;;8.40;99.90;;;;;;5053394;28;20090;-65
2023/04/23 02:48:03;;;;;;;46.15;26.38;;;8.40;99.90;;;;;;5052791;28;20120;-65
2023/04/23 02:50:28;;;;;;;51.72;26.48;;;8.30;99.90;;;;;;5053862;28;20052;-65
2023/04/23 02:52:54;;;;;;;50.10;26.58;;;8.30;99.90;;;;;;5053792;28;20037;-65
2023/04/23 02:55:19;;;;;;;66.45;24.35;;;8.20;99.90;;;;;;5053913;28;20033;-66
2023/04/23 02:57:45;;;;;;;67.25;24.58;;;8.20;99.90;;;;;;5053723;28;20072;-65
2023/04/23 03:00:12;;;;;;;65.82;25.15;;;8.20;99.90;;;;;;5054044;28;20044;-66
2023/04/23 03:02:37;;;;;;;46.38;23.40;;;8.20;99.90;;;;;;5053568;28;20045;-65
2023/04/23 03:05:04;;;;;;;88.95;27.33;;;8.20;99.90;;;;;;5053651;28;20449;-65
2023/04/23 03:07:30;;;;;;;87.78;27.17;;;8.10;99.90;;;;;;5053822;28;20402;-65
2023/04/23 03:09:56;;;;;;;264.05;32.40;;;8.10;99.90;;;;;;5053805;28;20120;-65
2023/04/23 03:12:21;;;;;;;89.20;29.75;;;8.10;99.90;;;;;;5053280;28;20128;-66
2023/04/23 03:14:47;;;;;;;384.38;42.03;;;8.00;99.90;;;;;;5053456;28;20044;-65
2023/04/23 03:17:12;;;;;;;269.92;35.05;;;8.00;99.90;;;;;;5053669;28;20457;-65
2023/04/23 03:19:38;;;;;;;179.65;29.73;;;8.00;99.90;;;;;;5053824;28;20064;-65
2023/04/23 03:22:04;;;;;;;112.82;29.42;;;7.90;99.90;;;;;;5053167;28;20040;-66
2023/04/23 03:24:33;;;;;;;120.85;27.02;;;7.90;99.90;;;;;;5053388;28;20037;-66
2023/04/23 03:26:59;;;;;;;67.72;30.63;;;7.90;99.90;;;;;;5053342;28;20047;-66
2023/04/23 03:29:25;;;;;;;69.20;29.38;;;7.90;99.90;;;;;;5053254;28;20402;-66
2023/04/23 03:31:51;;;;;;;86.68;35.70;;;7.90;99.90;;;;;;5053089;28;20040;-66
2023/04/23 03:34:16;;;;;;;68.93;35.65;;;8.00;99.90;;;;;;5053258;28;20052;-65
2023/04/23 03:36:43;;;;;;;69.35;35.20;;;8.00;99.90;;;;;;5053161;28;20028;-66
2023/04/23 03:39:09;;;;;;;69.15;35.38;;;8.00;99.90;;;;;;5053001;28;20108;-65
2023/04/23 03:41:35;;;;;;;71.40;38.03;;;8.10;99.90;;;;;;5052819;28;20514;-66
2023/04/23 03:44:00;;;;;;;97.30;37.63;;;8.10;99.90;;;;;;5053207;28;20044;-65
2023/04/23 03:46:26;;;;;;;125.05;40.58;;;8.10;99.90;;;;;;5053054;28;20040;-65
2023/04/23 03:48:51;;;;;;;81.18;35.05;;;8.10;99.90;;;;;;5052932;28;20087;-65
2023/04/23 03:51:17;;;;;;;142.20;38.28;;;8.00;99.90;;;;;;5052483;28;20112;-66
2023/04/23 03:53:44;;;;;;;76.53;33.45;;;8.00;99.90;;;;;;5052999;28;20040;-65
2023/04/23 03:56:09;;;;;;;168.85;36.78;;;8.00;99.90;;;;;;5052559;28;20449;-66
2023/04/23 03:58:35;;;;;;;100.55;35.00;;;7.90;99.90;;;;;;5052979;28;20041;-65
2023/04/23 04:01:01;;;;;;;82.57;35.95;;;7.90;99.90;;;;;;5048223;28;20395;-65
2023/04/23 04:03:27;;;;;;;96.80;36.00;;;7.90;99.90;;;;;;5052010;28;20033;-66
2023/04/23 04:05:53;;;;;;;109.13;36.45;;;7.90;99.90;;;;;;5042614;28;20049;-65
2023/04/23 04:08:19;;;;;;;125.32;37.13;;;7.80;99.90;;;;;;5052141;28;20494;-65
2023/04/23 04:10:44;;;;;;;117.15;36.83;;;7.80;99.90;;;;;;5051787;28;20140;-65
2023/04/23 04:13:10;;;;;;;116.35;35.97;;;7.80;99.90;;;;;;5052146;28;20044;-65
2023/04/23 04:15:36;;;;;;;99.80;36.05;;;7.80;99.90;;;;;;5052480;28;20162;-66
2023/04/23 04:18:02;;;;;;;115.60;37.33;;;7.80;99.90;;;;;;5052517;28;20075;-66
2023/04/23 04:20:27;;;;;;;70.13;34.08;;;7.80;99.90;;;;;;5052371;28;20124;-66
2023/04/23 04:22:54;;;;;;;102.53;37.72;;;7.80;99.90;;;;;;5052161;28;20102;-65
2023/04/23 04:25:21;;;;;;;79.78;39.85;;;7.80;99.90;;;;;;5051093;28;20041;-65
2023/04/23 04:27:48;;;;;;;106.07;43.33;;;7.80;99.90;;;;;;5052199;28;20501;-65
2023/04/23 04:30:14;;;;;;;90.03;42.50;;;7.80;99.90;;;;;;5051876;28;20048;-65
2023/04/23 04:32:41;;;;;;;85.60;43.65;;;7.80;99.90;;;;;;5051649;28;20514;-65
2023/04/23 04:35:11;;;;;;;89.85;44.22;;;7.80;99.90;;;;;;5051732;28;20037;-65
2023/04/23 04:37:37;;;;;;;90.75;43.47;;;7.80;99.90;;;;;;5052104;28;20124;-65
2023/04/23 04:40:03;;;;;;;96.97;44.90;;;7.80;99.90;;;;;;5051499;28;20076;-65
2023/04/23 04:42:29;;;;;;;95.13;45.10;;;7.80;99.90;;;;;;5033525;28;20048;-65
2023/04/23 04:44:58;;;;;;;100.45;46.83;;;7.90;99.90;;;;;;5051826;28;20056;-65
2023/04/23 04:47:24;;;;;;;103.32;47.42;;;7.90;99.90;;;;;;5051960;28;20045;-65
2023/04/23 04:49:50;;;;;;;104.05;47.38;;;8.00;99.90;;;;;;5051934;28;20048;-66
2023/04/23 04:52:16;;;;;;;104.68;46.70;;;8.00;99.90;;;;;;5051697;28;20048;-65
2023/04/23 04:54:41;;;;;;;100.40;48.08;;;8.10;99.90;;;;;;5051742;28;20070;-65
2023/04/23 04:57:07;;;;;;;102.40;48.72;;;8.10;99.90;;;;;;5051666;28;20037;-65
2023/04/23 04:59:33;;;;;;;101.95;48.80;;;8.10;99.90;;;;;;5051653;28;20182;-65
2023/04/23 05:01:59;;;;;;;108.65;50.85;;;8.20;99.90;;;;;;5051745;28;20045;-66
2023/04/23 05:04:24;;;;;;;107.20;49.88;;;8.30;99.90;;;;;;5051804;28;20052;-65
2023/04/23 05:06:50;;;;;;;111.35;51.58;;;8.30;99.90;;;;;;5033425;28;20094;-65
2023/04/23 05:09:16;;;;;;;102.78;48.53;;;8.40;99.90;;;;;;5051846;28;20036;-65
2023/04/23 05:11:41;;;;;;;106.55;49.20;;;8.40;99.90;;;;;;5051343;28;20041;-66
2023/04/23 05:14:07;;;;;;;107.32;49.45;;;8.40;99.90;;;;;;5033822;28;20045;-65
2023/04/23 05:16:34;;;;;;;108.63;48.13;;;8.50;99.90;;;;;;5051302;28;20079;-66
2023/04/23 05:18:59;;;;;;;103.47;48.03;;;8.50;99.90;;;;;;5051729;28;20033;-66
2023/04/23 05:21:26;;;;;;;106.90;49.28;;;8.50;99.90;;;;;;5051207;28;20526;-66
2023/04/23 05:23:53;;;;;;;107.00;50.33;;;8.60;99.90;;;;;;5055177;28;20049;-66
2023/04/23 05:26:19;;;;;;;108.40;48.67;;;8.60;99.90;;;;;;5055404;28;20044;-65
2023/04/23 05:28:45;;;;;;;108.93;50.08;;;8.70;99.90;;;;;;5055737;28;20051;-66
2023/04/23 05:31:10;;;;;;;109.15;50.85;;;8.70;99.90;;;;;;5055339;28;20116;-66
2023/04/23 05:33:36;;;;;;;110.05;48.67;;;8.70;99.90;;;;;;5055104;28;20072;-66
2023/04/23 05:36:02;;;;;;;107.28;49.60;;;8.80;99.90;;;;;;5054979;28;20037;-66
2023/04/23 05:38:28;;;;;;;115.45;50.80;;;8.80;99.90;;;;;;5055313;28;20040;-66
2023/04/23 05:40:53;;;;;;;105.88;46.28;;;8.80;99.90;;;;;;5055289;28;20086;-66
2023/04/23 05:43:19;;;;;;;105.35;47.92;;;8.80;99.90;;;;;;5055557;28;20514;-66
2023/04/23 05:45:44;;;;;;;112.72;49.50;;;8.90;99.90;;;;;;5055045;28;20518;-66
2023/04/23 05:48:10;;;;;;;109.15;48.75;;;8.90;99.90;;;;;;5055211;28;20048;-66
2023/04/23 05:50:35;;;;;;;103.95;47.10;;;8.90;99.90;;;;;;5054967;28;20107;-66
2023/04/23 05:53:01;;;;;;;98.60;44.20;;;8.90;99.90;;;;;;5054899;28;20044;-66
2023/04/23 05:55:26;;;;;;;103.35;48.20;;;8.90;99.90;;;;;;5055138;28;20029;-66
2023/04/23 05:57:52;;;;;;;105.07;48.50;;;9.00;99.90;;;;;;5055122;28;20115;-66
2023/04/23 06:00:18;;;;;;;101.03;46.42;;;9.00;99.90;;;;;;5055150;28;20033;-66
2023/04/23 06:02:43;;;;;;;106.90;47.60;;;9.00;99.90;;;;;;5054840;28;20120;-66
2023/04/23 06:05:09;;;;;;;100.97;47.80;;;9.10;99.90;;;;;;5054269;28;20517;-66
2023/04/23 06:07:35;;;;;;;100.88;45.65;;;9.20;99.90;;;;;;5054614;28;20546;-66
2023/04/23 06:10:04;;;;;;;103.32;47.42;;;9.30;99.90;;;;;;5055067;28;20040;-66
2023/04/23 06:12:30;;;;;;;97.97;44.65;;;9.30;99.90;;;;;;5054615;28;20094;-66
2023/04/23 06:14:56;;;;;;;96.57;44.60;;;9.40;99.90;;;;;;5054771;28;20430;-66
2023/04/23 06:17:22;;;;;;;99.70;44.25;;;9.40;99.90;;;;;;5054590;28;20033;-66
2023/04/23 06:19:47;;;;;;;97.75;44.45;;;9.50;99.90;;;;;;5054694;28;20033;-66
2023/04/23 06:22:13;;;;;;;92.13;40.95;;;9.50;99.90;;;;;;5053799;28;20033;-66
2023/04/23 06:24:38;;;;;;;100.28;46.13;;;9.60;99.90;;;;;;5054723;28;20036;-66
2023/04/23 06:27:04;;;;;;;94.57;43.30;;;9.70;99.90;;;;;;5054303;28;20127;-66
2023/04/23 06:29:30;;;;;;;97.82;45.08;;;9.80;99.90;;;;;;5054618;28;20041;-66
2023/04/23 06:31:56;;;;;;;98.28;44.03;;;9.90;99.90;;;;;;5054032;28;20086;-66
2023/04/23 06:34:22;;;;;;;90.82;41.70;;;10.10;99.90;;;;;;5052801;28;20028;-66
2023/04/23 06:36:49;;;;;;;90.82;41.88;;;10.10;99.90;;;;;;5036273;28;20043;-66
2023/04/23 06:39:15;;;;;;;91.55;42.92;;;10.20;99.90;;;;;;5054456;28;20037;-66
2023/04/23 06:41:40;;;;;;;79.40;36.97;;;10.30;99.90;;;;;;5054184;28;20045;-66
2023/04/23 06:44:06;;;;;;;82.28;39.58;;;10.40;99.90;;;;;;5054520;28;20461;-66
2023/04/23 06:46:32;;;;;;;87.80;41.17;;;10.40;99.90;;;;;;5053614;28;20041;-66
2023/04/23 06:48:57;;;;;;;84.85;40.15;;;10.50;99.90;;;;;;5054075;28;20037;-66
2023/04/23 06:51:25;;;;;;;84.15;39.15;;;10.50;99.90;;;;;;5053293;28;20060;-66
2023/04/23 06:53:50;;;;;;;83.72;39.40;;;10.60;99.90;;;;;;5036254;28;20041;-66
2023/04/23 06:56:16;;;;;;;79.35;39.72;;;10.80;99.90;;;;;;5053121;28;20457;-66
2023/04/23 06:58:42;;;;;;;74.68;36.92;;;10.90;99.90;;;;;;5054011;28;20132;-66
2023/04/23 07:01:07;;;;;;;71.75;36.72;;;10.90;99.90;;;;;;5053538;28;20033;-66
2023/04/23 07:03:35;;;;;;;76.95;39.08;;;11.10;99.90;;;;;;5053528;28;20044;-65
2023/04/23 07:06:00;;;;;;;75.28;37.38;;;11.20;99.90;;;;;;5053262;28;20589;-66
2023/04/23 07:08:26;;;;;;;68.45;34.63;;;11.30;99.90;;;;;;5053935;28;20048;-66
2023/04/23 07:10:52;;;;;;;62.78;34.50;;;11.40;99.90;;;;;;5053534;28;20500;-66
2023/04/23 07:13:17;;;;;;;59.13;32.97;;;11.60;99.90;;;;;;5052921;28;20037;-66
2023/04/23 07:15:43;;;;;;;62.65;32.85;;;11.70;99.90;;;;;;5053287;28;20041;-66
2023/04/23 07:18:09;;;;;;;55.95;31.60;;;11.80;99.90;;;;;;5035619;28;20410;-66
2023/04/23 07:20:35;;;;;;;56.58;32.10;;;11.90;99.90;;;;;;5053244;28;20055;-66
2023/04/23 07:23:02;;;;;;;57.65;30.85;;;12.00;99.90;;;;;;5053712;28;20041;-66
2023/04/23 07:25:29;;;;;;;55.50;30.63;;;12.10;99.90;;;;;;5053333;28;20036;-66
2023/04/23 07:27:55;;;;;;;52.55;29.83;;;12.10;99.90;;;;;;5053450;28;20112;-65
2023/04/23 07:30:22;;;;;;;55.28;30.52;;;12.10;99.90;;;;;;5053297;28;20215;-66
2023/04/23 07:32:48;;;;;;;53.05;29.58;;;12.00;99.90;;;;;;5052939;28;20243;-66
2023/04/23 07:35:14;;;;;;;57.13;32.20;;;11.90;99.90;;;;;;5053463;28;20487;-66
2023/04/23 07:37:39;;;;;;;58.95;30.98;;;12.00;99.90;;;;;;5053241;28;20033;-66
2023/04/23 07:40:07;;;;;;;57.40;31.83;;;12.00;99.90;;;;;;5053284;28;20075;-66
2023/04/23 07:42:32;;;;;;;55.55;31.88;;;12.00;99.90;;;;;;5052885;28;20041;-65
2023/04/23 07:44:58;;;;;;;54.47;31.95;;;12.20;99.90;;;;;;5052155;28;20037;-65
2023/04/23 07:47:24;;;;;;;54.70;32.20;;;12.30;99.90;;;;;;5052767;28;20076;-66
2023/04/23 07:49:49;;;;;;;54.60;30.02;;;12.50;99.90;;;;;;5053000;28;20068;-66
2023/04/23 07:52:15;;;;;;;52.67;30.17;;;12.60;99.90;;;;;;5052993;28;20041;-66
2023/04/23 07:54:41;;;;;;;54.08;29.75;;;12.70;99.90;;;;;;5053048;28;20047;-66
2023/04/23 07:57:07;;;;;;;52.90;29.88;;;12.80;99.90;;;;;;5080038;22;20123;-65
2023/04/23 07:59:33;;;;;;;48.72;28.92;;;12.80;99.90;;;;;;5085083;28;20119;-63
2023/04/23 08:01:58;;;;;;;51.15;29.33;;;12.90;99.90;;;;;;5083363;28;20047;-64
2023/04/23 08:04:24;;;;;;;52.67;29.25;;;13.00;99.90;;;;;;5092894;28;20044;-64
2023/04/23 08:06:50;;;;;;;48.50;28.17;;;13.10;99.90;;;;;;5092588;28;20040;-64
2023/04/23 08:09:15;;;;;;;49.13;29.30;;;13.30;99.90;;;;;;5092748;28;20081;-64
2023/04/23 08:11:41;;;;;;;44.20;26.50;;;13.40;99.90;;;;;;5092378;28;20040;-64
2023/04/23 08:14:06;;;;;;;48.22;28.30;;;13.50;99.90;;;;;;5092819;28;20081;-64
2023/04/23 08:16:32;;;;;;;45.45;27.73;;;13.50;99.90;;;;;;5092568;28;20024;-64
2023/04/23 08:18:57;;;;;;;45.80;27.90;;;13.50;99.90;;;;;;5092397;28;20127;-64
2023/04/23 08:21:25;;;;;;;46.35;27.83;;;13.60;99.90;;;;;;5092516;28;20135;-64
2023/04/23 08:23:51;;;;;;;44.20;27.52;;;13.70;99.90;;;;;;5092742;28;20039;-64
2023/04/23 08:26:17;;;;;;;43.25;27.08;;;13.80;99.90;;;;;;5092476;28;20040;-64
2023/04/23 08:28:42;;;;;;;38.55;24.40;;;13.80;99.90;;;;;;5091827;28;20040;-64
2023/04/23 08:31:08;;;;;;;43.33;26.60;;;13.90;99.90;;;;;;5092010;28;20040;-64
2023/04/23 08:33:33;;;;;;;41.70;25.55;;;14.00;99.90;;;;;;5092069;28;20402;-64
2023/04/23 08:36:00;;;;;;;36.17;25.08;;;14.10;99.90;;;;;;5091950;28;20071;-64
2023/04/23 08:38:25;;;;;;;40.28;24.50;;;14.20;99.90;;;;;;5092013;28;20039;-64
2023/04/23 08:40:56;;;;;;;41.03;22.77;;;14.40;99.90;;;;;;5092146;28;20039;-64
2023/04/23 08:43:35;;;;;;;41.00;25.05;;;14.50;99.90;;;;;;5091848;28;20502;-64
2023/04/23 08:46:05;;;;;;;40.75;23.70;;;14.60;99.90;;;;;;5092355;28;20071;-64
2023/04/23 08:48:33;;;;;;;38.22;24.25;;;14.70;99.90;;;;;;5091845;28;20516;-64
2023/04/23 08:51:02;;;;;;;37.97;23.92;;;14.80;99.90;;;;;;5092221;28;20048;-64
2023/04/23 08:53:28;;;;;;;34.25;23.55;;;14.80;99.90;;;;;;5091681;28;20041;-64
2023/04/23 08:55:55;;;;;;;33.83;21.05;;;14.90;99.90;;;;;;5073901;28;20183;-64
2023/04/23 08:58:22;;;;;;;33.13;21.42;;;14.90;99.90;;;;;;5091539;28;20040;-64
2023/04/23 09:00:49;;;;;;;32.10;21.17;;;15.00;99.90;;;;;;5092073;28;20397;-64
2023/04/23 09:03:19;;;;;;;33.80;22.38;;;15.00;99.90;;;;;;5092194;28;20052;-65
2023/04/23 09:05:45;;;;;;;31.55;20.70;;;15.10;99.90;;;;;;5092145;28;20044;-64
2023/04/23 09:08:11;;;;;;;29.23;18.15;;;15.10;99.90;;;;;;5091872;28;20047;-64
2023/04/23 09:10:40;;;;;;;31.70;19.73;;;15.20;99.90;;;;;;5091845;28;20040;-64
2023/04/23 09:13:06;;;;;;;29.67;19.00;;;15.40;99.90;;;;;;5091966;28;20040;-64
2023/04/23 09:15:31;;;;;;;26.50;16.40;;;15.50;99.90;;;;;;5092188;28;20043;-64
2023/04/23 09:17:58;;;;;;;26.40;17.10;;;15.60;99.90;;;;;;5091895;28;20452;-64
2023/04/23 09:20:24;;;;;;;26.65;17.35;;;15.60;99.90;;;;;;5091958;28;20067;-64
2023/04/23 09:22:54;;;;;;;26.52;17.65;;;15.70;99.90;;;;;;5091635;28;20094;-64
2023/04/23 09:25:21;;;;;;;23.70;15.38;;;15.80;99.90;;;;;;5091357;28;20062;-64
2023/04/23 09:27:49;;;;;;;22.30;14.23;;;15.90;99.90;;;;;;5091286;28;20050;-64
2023/04/23 09:30:16;;;;;;;24.23;16.17;;;15.90;99.90;;;;;;5091908;28;20379;-64
2023/04/23 09:32:44;;;;;;;23.42;15.40;;;16.00;99.90;;;;;;5091595;28;20040;-64
2023/04/23 09:35:15;;;;;;;22.90;13.55;;;16.10;99.90;;;;;;5073636;28;20128;-64
2023/04/23 09:37:47;;;;;;;23.13;13.98;;;16.30;99.90;;;;;;5091714;28;20040;-64
2023/04/23 09:40:18;;;;;;;21.10;13.18;;;16.40;99.90;;;;;;5091449;28;20036;-64
2023/04/23 09:42:53;;;;;;;21.35;12.80;;;16.50;99.90;;;;;;5091288;28;20036;-64
2023/04/23 09:45:18;;;;;;;22.05;14.75;;;16.40;99.90;;;;;;5091637;28;20044;-64
2023/04/23 09:47:53;;;;;;;17.77;11.00;;;16.40;99.90;;;;;;5091704;28;20036;-64
2023/04/23 09:50:30;;;;;;;16.42;9.93;;;16.40;99.90;;;;;;5091426;28;20044;-64
2023/04/23 09:52:57;;;;;;;17.73;10.07;;;16.40;99.90;;;;;;5091287;28;20497;-64
2023/04/23 09:55:37;;;;;;;16.15;10.85;;;16.40;99.90;;;;;;5091708;28;20028;-64
2023/04/23 09:58:12;;;;;;;20.17;10.90;;;16.50;99.90;;;;;;5076081;28;20040;-64
2023/04/23 10:00:38;;;;;;;15.68;9.77;;;16.70;99.90;;;;;;5063086;28;20033;-64
2023/04/23 10:03:06;;;;;;;13.73;9.45;;;16.80;99.90;;;;;;5063164;28;20036;-64
2023/04/23 10:05:38;;;;;;;14.85;7.72;;;17.00;99.90;;;;;;5071239;28;20036;-64
2023/04/23 10:08:05;;;;;;;12.00;8.15;;;17.10;99.90;;;;;;5072360;28;20047;-64
2023/04/23 10:10:30;;;;;;;12.73;8.77;;;17.20;99.90;;;;;;5074568;28;20048;-64
2023/04/23 10:12:57;;;;;;;14.07;9.13;;;17.30;99.90;;;;;;5056635;28;20555;-64
2023/04/23 10:15:25;;;;;;;12.57;7.45;;;17.40;99.90;;;;;;5074667;28;20076;-64
2023/04/23 10:17:52;;;;;;;11.50;7.28;;;17.50;99.90;;;;;;5072132;28;20036;-64
2023/04/23 10:20:20;;;;;;;10.43;7.00;;;17.30;99.90;;;;;;5071438;28;20036;-64
2023/04/23 10:22:47;;;;;;;12.30;7.07;;;17.50;99.90;;;;;;5063815;28;20037;-64
2023/04/23 10:25:13;;;;;;;9.27;6.35;;;17.70;99.90;;;;;;5054610;28;20048;-64
2023/04/23 10:27:42;;;;;;;12.30;7.10;;;17.80;99.90;;;;;;5054395;28;20045;-63
2023/04/23 10:30:10;;;;;;;11.30;6.15;;;17.90;99.90;;;;;;5054319;28;20119;-64
2023/04/23 10:32:39;;;;;;;11.20;5.40;;;17.80;99.90;;;;;;5045619;28;20533;-64
2023/04/23 10:35:07;;;;;;;11.63;4.95;;;17.80;99.90;;;;;;5072188;28;20028;-64
2023/04/23 10:37:33;;;;;;;11.40;5.25;;;17.80;99.90;;;;;;5051946;28;20065;-64
2023/04/23 10:40:29;;;;;;;11.93;4.57;;;17.90;99.90;;;;;;5072614;28;20032;-64
2023/04/23 10:42:55;;;;;;;8.77;4.57;;;18.00;99.90;;;;;;5069332;28;20053;-64
2023/04/23 10:45:21;;;;;;;7.88;4.00;;;18.10;99.90;;;;;;5074192;28;20043;-64
2023/04/23 10:47:47;;;;;;;7.47;4.13;;;18.10;99.90;;;;;;5071314;28;20040;-64
2023/04/23 10:50:26;;;;;;;6.05;3.63;;;18.20;99.90;;;;;;5072758;28;20036;-64
2023/04/23 10:52:52;;;;;;;5.88;3.22;;;18.40;99.90;;;;;;5070635;28;20076;-64
2023/04/23 10:55:20;;;;;;;6.53;3.78;;;18.30;99.90;;;;;;5072128;28;20065;-64
2023/04/23 10:58:03;;;;;;;11.05;3.83;;;18.40;99.90;;;;;;5070833;28;20123;-64
2023/04/23 11:00:42;;;;;;;6.38;3.60;;;18.30;99.90;;;;;;5072580;28;20041;-64
2023/04/23 11:03:41;;;;;;;6.68;3.63;;;18.30;99.90;;;;;;5064920;28;20093;-64
2023/04/23 11:06:07;;;;;;;7.40;3.83;;;18.10;99.90;;;;;;5046158;28;20040;-64
2023/04/23 11:08:36;;;;;;;8.43;3.83;;;17.90;99.90;;;;;;5071299;28;20040;-64
2023/04/23 11:11:06;;;;;;;6.60;3.40;;;17.80;99.90;;;;;;5073166;28;20048;-64
2023/04/23 11:13:32;;;;;;;4.50;2.70;;;17.90;99.90;;;;;;5073274;28;20398;-64
2023/04/23 11:16:21;;;;;;;6.00;2.75;;;18.00;99.90;;;;;;5072245;28;20029;-64
2023/04/23 11:19:07;;;;;;;5.10;2.38;;;18.10;99.90;;;;;;5065477;28;20037;-63
2023/04/23 11:22:01;;;;;;;7.47;2.72;;;18.30;99.90;;;;;;5075173;28;20060;-64
2023/04/23 11:24:36;;;;;;;8.57;3.20;;;18.30;99.90;;;;;;5069293;28;20028;-64
2023/04/23 11:27:05;;;;;;;5.93;2.50;;;18.40;99.90;;;;;;5071932;28;20090;-63
2023/04/23 11:29:31;;;;;;;5.75;2.40;;;18.40;99.90;;;;;;5088116;28;20093;-63
2023/04/23 11:31:56;;;;;;;6.90;2.47;;;18.60;99.90;;;;;;5064124;28;20039;-64
2023/04/23 11:34:24;;;;;;;6.20;2.30;;;18.80;99.90;;;;;;5092816;28;20032;-63
2023/04/23 11:36:52;;;;;;;3.63;2.35;;;18.70;99.90;;;;;;5081112;28;20041;-64
2023/04/23 11:39:18;;;;;;;5.95;2.08;;;18.70;99.90;;;;;;5086211;28;20379;-63
2023/04/23 11:41:45;;;;;;;2.83;1.85;;;18.80;99.90;;;;;;5076338;28;20040;-64
2023/04/23 11:44:11;;;;;;;7.10;1.90;;;18.80;99.90;;;;;;5072671;28;20441;-63
2023/04/23 11:46:37;;;;;;;5.63;1.73;;;18.70;98.20;;;;;;5069968;28;20036;-64
2023/04/23 11:49:03;;;;;;;6.50;2.10;;;18.70;97.70;;;;;;5073991;28;20040;-63
2023/04/23 11:51:28;;;;;;;4.05;1.70;;;18.50;97.80;;;;;;5078161;28;20036;-63
2023/04/23 11:54:00;;;;;;;4.35;1.50;;;18.40;96.30;;;;;;5072714;28;20036;-63
2023/04/23 11:56:29;;;;;;;7.75;1.70;;;18.50;96.90;;;;;;5071790;28;20059;-63
2023/04/23 11:59:02;;;;;;;5.53;1.90;;;18.70;98.20;;;;;;5078129;28;20512;-63
2023/04/23 12:01:42;;;;;;;4.40;1.80;;;18.80;95.30;;;;;;5070303;28;20040;-63
2023/04/23 12:04:11;;;;;;;6.35;2.45;;;19.00;94.70;;;;;;5069894;28;20398;-63
2023/04/23 12:06:41;;;;;;;4.03;2.22;;;19.10;95.10;;;;;;5068375;28;20394;-64
2023/04/23 12:09:07;;;;;;;7.20;2.03;;;19.10;93.80;;;;;;5064473;28;20509;-64
2023/04/23 12:11:34;;;;;;;5.88;1.75;;;19.10;93.90;;;;;;5071085;28;20032;-64
2023/04/23 12:14:00;;;;;;;4.80;1.90;;;19.00;93.50;;;;;;5071367;28;20033;-64
2023/04/23 12:16:42;;;;;;;5.97;1.80;;;18.90;93.00;;;;;;5051733;28;20037;-64
2023/04/23 12:19:11;;;;;;;3.03;1.80;;;19.00;93.00;;;;;;5061756;28;20033;-64
2023/04/23 12:21:57;;;;;;;5.00;1.90;;;19.10;93.60;;;;;;5072860;28;20040;-63
2023/04/23 12:24:27;;;;;;;6.18;2.03;;;19.20;93.60;;;;;;5080430;28;20059;-64
2023/04/23 12:26:59;;;;;;;3.83;1.35;;;19.20;93.50;;;;;;5077635;28;20379;-64
2023/04/23 12:29:25;;;;;;;4.72;1.67;;;18.90;90.50;;;;;;5066873;28;20033;-64
2023/04/23 12:31:52;;;;;;;7.10;2.20;;;18.90;91.60;;;;;;5070291;28;20123;-64
2023/04/23 12:34:21;;;;;;;5.60;1.95;;;18.90;91.50;;;;;;5071999;28;20043;-64